sensor_id;sensor_type;location;lat;lon;timestamp;P1;durP1;ratioP1;P2;durP2;ratioP2
37847;SDS011;23688;33.130;-117.188;2023-04-25T00:01:01;15.82;;;5.13;;
37847;SDS011;23688;33.130;-117.188;2023-04-25T00:03:29;16.45;;;5.50;;
37847;SDS011;23688;33.130;-117.188;2023-04-25T00:05:56;17.95;;;6.47;;
37847;SDS011;23688;33.130;-117.188;2023-04-25T00:08:22;11.75;;;5.32;;
37847;SDS011;23688;33.130;-117.188;2023-04-25T00:10:48;16.35;;;5.95;;
37847;SDS011;23688;33.130;-117.188;2023-04-25T00:13:15;16.52;;;5.70;;
37847;SDS011;23688;33.130;-117.188;2023-04-25T00:15:42;21.05;;;6.32;;
37847;SDS011;23688;33.130;-117.188;2023-04-25T00:18:09;10.15;;;4.30;;
37847;SDS011;23688;33.130;-117.188;2023-04-25T00:20:36;17.30;;;5.10;;
37847;SDS011;23688;33.130;-117.188;2023-04-25T00:23:02;12.75;;;4.70;;
37847;SDS011;23688;33.130;-117.188;2023-04-25T00:25:31;26.73;;;5.65;;
37847;SDS011;23688;33.130;-117.188;2023-04-25T00:27:57;15.40;;;4.97;;
37847;SDS011;23688;33.130;-117.188;2023-04-25T00:30:24;18.77;;;5.32;;
37847;SDS011;23688;33.130;-117.188;2023-04-25T00:32:50;16.95;;;6.13;;
37847;SDS011;23688;33.130;-117.188;2023-04-25T00:35:16;14.05;;;5.00;;
37847;SDS011;23688;33.130;-117.188;2023-04-25T00:37:43;16.40;;;4.70;;
37847;SDS011;23688;33.130;-117.188;2023-04-25T00:40:09;18.25;;;5.38;;
37847;SDS011;23688;33.130;-117.188;2023-04-25T00:42:37;19.02;;;5.85;;
37847;SDS011;23688;33.130;-117.188;2023-04-25T00:45:07;20.45;;;5.53;;
37847;SDS011;23688;33.130;-117.188;2023-04-25T00:47:38;16.55;;;5.72;;
37847;SDS011;23688;33.130;-117.188;2023-04-25T00:50:05;13.38;;;5.43;;
37847;SDS011;23688;33.130;-117.188;2023-04-25T00:52:32;17.08;;;5.07;;
37847;SDS011;23688;33.130;-117.188;2023-04-25T00:55:01;14.07;;;5.43;;
37847;SDS011;23688;33.130;-117.188;2023-04-25T00:57:27;19.70;;;5.55;;
37847;SDS011;23688;33.130;-117.188;2023-04-25T00:59:53;15.38;;;5.10;;
37847;SDS011;23688;33.130;-117.188;2023-04-25T01:02:20;11.90;;;5.20;;
37847;SDS011;23688;33.130;-117.188;2023-04-25T01:04:47;14.38;;;5.82;;
37847;SDS011;23688;33.130;-117.188;2023-04-25T01:07:14;22.50;;;5.47;;
37847;SDS011;23688;33.130;-117.188;2023-04-25T01:09:41;20.15;;;5.95;;
37847;SDS011;23688;33.130;-117.188;2023-04-25T01:12:08;14.32;;;5.05;;
37847;SDS011;23688;33.130;-117.188;2023-04-25T01:14:34;15.70;;;6.90;;
37847;SDS011;23688;33.130;-117.188;2023-04-25T01:17:03;18.17;;;5.88;;
37847;SDS011;23688;33.130;-117.188;2023-04-25T01:19:30;20.40;;;5.60;;
37847;SDS011;23688;33.130;-117.188;2023-04-25T01:21:57;16.48;;;5.60;;
37847;SDS011;23688;33.130;-117.188;2023-04-25T01:24:24;14.75;;;5.97;;
37847;SDS011;23688;33.130;-117.188;2023-04-25T01:26:51;23.10;;;5.93;;
37847;SDS011;23688;33.130;-117.188;2023-04-25T01:29:18;20.08;;;6.30;;
37847;SDS011;23688;33.130;-117.188;2023-04-25T01:31:46;24.38;;;6.97;;
37847;SDS011;23688;33.130;-117.188;2023-04-25T01:34:12;23.05;;;7.32;;
37847;SDS011;23688;33.130;-117.188;2023-04-25T01:36:39;18.00;;;5.85;;
37847;SDS011;23688;33.130;-117.188;2023-04-25T01:39:06;25.55;;;6.40;;
37847;SDS011;23688;33.130;-117.188;2023-04-25T01:41:33;25.02;;;7.05;;
37847;SDS011;23688;33.130;-117.188;2023-04-25T01:44:02;16.25;;;5.93;;
37847;SDS011;23688;33.130;-117.188;2023-04-25T01:46:29;18.50;;;6.18;;
37847;SDS011;23688;33.130;-117.188;2023-04-25T01:48:55;19.08;;;7.18;;
37847;SDS011;23688;33.130;-117.188;2023-04-25T01:51:22;12.10;;;5.70;;
37847;SDS011;23688;33.130;-117.188;2023-04-25T01:53:48;15.18;;;6.60;;
37847;SDS011;23688;33.130;-117.188;2023-04-25T01:56:17;25.58;;;7.13;;
37847;SDS011;23688;33.130;-117.188;2023-04-25T01:58:44;16.80;;;6.75;;
37847;SDS011;23688;33.130;-117.188;2023-04-25T02:01:11;18.58;;;7.20;;
37847;SDS011;23688;33.130;-117.188;2023-04-25T02:03:37;20.35;;;7.35;;
37847;SDS011;23688;33.130;-117.188;2023-04-25T02:06:04;21.27;;;7.25;;
37847;SDS011;23688;33.130;-117.188;2023-04-25T02:08:31;17.67;;;6.30;;
37847;SDS011;23688;33.130;-117.188;2023-04-25T02:10:57;18.95;;;6.80;;
37847;SDS011;23688;33.130;-117.188;2023-04-25T02:13:24;18.73;;;6.40;;
37847;SDS011;23688;33.130;-117.188;2023-04-25T02:15:50;18.75;;;6.72;;
37847;SDS011;23688;33.130;-117.188;2023-04-25T02:18:16;19.83;;;6.70;;
37847;SDS011;23688;33.130;-117.188;2023-04-25T02:20:43;24.10;;;7.35;;
37847;SDS011;23688;33.130;-117.188;2023-04-25T02:23:12;16.98;;;6.85;;
37847;SDS011;23688;33.130;-117.188;2023-04-25T02:25:40;18.50;;;6.53;;
37847;SDS011;23688;33.130;-117.188;2023-04-25T02:28:09;23.05;;;7.03;;
37847;SDS011;23688;33.130;-117.188;2023-04-25T02:30:35;24.92;;;7.38;;
37847;SDS011;23688;33.130;-117.188;2023-04-25T02:33:02;11.25;;;6.32;;
37847;SDS011;23688;33.130;-117.188;2023-04-25T02:35:28;21.92;;;6.10;;
37847;SDS011;23688;33.130;-117.188;2023-04-25T02:37:55;14.52;;;6.28;;
37847;SDS011;23688;33.130;-117.188;2023-04-25T02:40:21;14.90;;;6.43;;
37847;SDS011;23688;33.130;-117.188;2023-04-25T02:42:49;15.83;;;6.53;;
37847;SDS011;23688;33.130;-117.188;2023-04-25T02:45:15;22.67;;;7.10;;
37847;SDS011;23688;33.130;-117.188;2023-04-25T02:47:41;19.13;;;6.93;;
37847;SDS011;23688;33.130;-117.188;2023-04-25T02:50:12;17.50;;;7.10;;
37847;SDS011;23688;33.130;-117.188;2023-04-25T02:52:39;17.95;;;6.55;;
37847;SDS011;23688;33.130;-117.188;2023-04-25T02:55:05;16.40;;;6.88;;
37847;SDS011;23688;33.130;-117.188;2023-04-25T02:57:32;19.42;;;6.60;;
37847;SDS011;23688;33.130;-117.188;2023-04-25T02:59:58;19.98;;;6.95;;
37847;SDS011;23688;33.130;-117.188;2023-04-25T03:02:25;21.13;;;7.03;;
37847;SDS011;23688;33.130;-117.188;2023-04-25T03:04:51;20.90;;;7.05;;
37847;SDS011;23688;33.130;-117.188;2023-04-25T03:07:19;25.05;;;7.30;;
37847;SDS011;23688;33.130;-117.188;2023-04-25T03:09:45;22.45;;;7.32;;
37847;SDS011;23688;33.130;-117.188;2023-04-25T03:12:15;19.70;;;7.40;;
37847;SDS011;23688;33.130;-117.188;2023-04-25T03:14:41;25.85;;;6.93;;
37847;SDS011;23688;33.130;-117.188;2023-04-25T03:17:07;19.80;;;6.85;;
37847;SDS011;23688;33.130;-117.188;2023-04-25T03:19:34;22.17;;;7.68;;
37847;SDS011;23688;33.130;-117.188;2023-04-25T03:22:02;23.70;;;7.85;;
37847;SDS011;23688;33.130;-117.188;2023-04-25T03:24:28;20.70;;;7.60;;
37847;SDS011;23688;33.130;-117.188;2023-04-25T03:26:55;24.58;;;7.50;;
37847;SDS011;23688;33.130;-117.188;2023-04-25T03:29:22;21.88;;;6.75;;
37847;SDS011;23688;33.130;-117.188;2023-04-25T03:34:16;19.92;;;7.10;;
37847;SDS011;23688;33.130;-117.188;2023-04-25T03:36:43;14.73;;;6.60;;
37847;SDS011;23688;33.130;-117.188;2023-04-25T03:39:12;22.00;;;6.43;;
37847;SDS011;23688;33.130;-117.188;2023-04-25T03:41:38;15.70;;;6.57;;
37847;SDS011;23688;33.130;-117.188;2023-04-25T03:44:05;19.58;;;7.18;;
37847;SDS011;23688;33.130;-117.188;2023-04-25T03:46:31;22.33;;;7.47;;
37847;SDS011;23688;33.130;-117.188;2023-04-25T03:48:57;25.20;;;8.52;;
37847;SDS011;23688;33.130;-117.188;2023-04-25T03:51:24;18.65;;;7.72;;
37847;SDS011;23688;33.130;-117.188;2023-04-25T03:53:51;15.32;;;6.47;;
37847;SDS011;23688;33.130;-117.188;2023-04-25T03:56:18;23.95;;;7.50;;
37847;SDS011;23688;33.130;-117.188;2023-04-25T03:58:45;17.70;;;7.65;;
37847;SDS011;23688;33.130;-117.188;2023-04-25T04:01:11;26.75;;;7.28;;
37847;SDS011;23688;33.130;-117.188;2023-04-25T04:03:37;16.30;;;6.72;;
37847;SDS011;23688;33.130;-117.188;2023-04-25T04:06:04;17.42;;;7.30;;
37847;SDS011;23688;33.130;-117.188;2023-04-25T04:08:32;14.40;;;7.43;;
37847;SDS011;23688;33.130;-117.188;2023-04-25T04:10:58;17.20;;;7.72;;
37847;SDS011;23688;33.130;-117.188;2023-04-25T04:13:28;14.10;;;7.22;;
37847;SDS011;23688;33.130;-117.188;2023-04-25T04:15:55;15.50;;;7.00;;
37847;SDS011;23688;33.130;-117.188;2023-04-25T04:18:21;16.08;;;7.75;;
37847;SDS011;23688;33.130;-117.188;2023-04-25T04:20:48;21.98;;;7.97;;
37847;SDS011;23688;33.130;-117.188;2023-04-25T04:23:15;15.80;;;6.43;;
37847;SDS011;23688;33.130;-117.188;2023-04-25T04:25:41;17.02;;;6.97;;
37847;SDS011;23688;33.130;-117.188;2023-04-25T04:28:07;16.70;;;7.15;;
37847;SDS011;23688;33.130;-117.188;2023-04-25T04:30:34;20.90;;;6.75;;
37847;SDS011;23688;33.130;-117.188;2023-04-25T04:35:28;17.23;;;7.30;;
37847;SDS011;23688;33.130;-117.188;2023-04-25T04:37:55;19.23;;;6.72;;
37847;SDS011;23688;33.130;-117.188;2023-04-25T04:40:21;27.42;;;8.48;;
37847;SDS011;23688;33.130;-117.188;2023-04-25T04:42:48;19.35;;;7.55;;
37847;SDS011;23688;33.130;-117.188;2023-04-25T04:45:14;22.20;;;7.05;;
37847;SDS011;23688;33.130;-117.188;2023-04-25T04:47:41;20.48;;;8.00;;
37847;SDS011;23688;33.130;-117.188;2023-04-25T04:50:08;18.17;;;6.47;;
37847;SDS011;23688;33.130;-117.188;2023-04-25T04:52:35;18.33;;;7.20;;
37847;SDS011;23688;33.130;-117.188;2023-04-25T04:55:03;18.27;;;7.75;;
37847;SDS011;23688;33.130;-117.188;2023-04-25T04:57:30;14.20;;;7.20;;
37847;SDS011;23688;33.130;-117.188;2023-04-25T04:59:58;23.30;;;7.35;;
37847;SDS011;23688;33.130;-117.188;2023-04-25T05:02:25;16.10;;;7.05;;
37847;SDS011;23688;33.130;-117.188;2023-04-25T05:04:51;14.63;;;7.47;;
37847;SDS011;23688;33.130;-117.188;2023-04-25T05:07:18;20.63;;;7.43;;
37847;SDS011;23688;33.130;-117.188;2023-04-25T05:09:45;16.58;;;6.55;;
37847;SDS011;23688;33.130;-117.188;2023-04-25T05:12:11;21.00;;;7.15;;
37847;SDS011;23688;33.130;-117.188;2023-04-25T05:14:37;15.07;;;6.78;;
37847;SDS011;23688;33.130;-117.188;2023-04-25T05:17:04;11.48;;;6.20;;
37847;SDS011;23688;33.130;-117.188;2023-04-25T05:19:33;26.10;;;7.68;;
37847;SDS011;23688;33.130;-117.188;2023-04-25T05:22:00;18.30;;;6.80;;
37847;SDS011;23688;33.130;-117.188;2023-04-25T05:24:26;19.25;;;7.35;;
37847;SDS011;23688;33.130;-117.188;2023-04-25T05:26:53;18.98;;;8.13;;
37847;SDS011;23688;33.130;-117.188;2023-04-25T05:29:19;21.55;;;8.10;;
37847;SDS011;23688;33.130;-117.188;2023-04-25T05:31:45;21.25;;;7.63;;
37847;SDS011;23688;33.130;-117.188;2023-04-25T05:34:13;20.75;;;8.27;;
37847;SDS011;23688;33.130;-117.188;2023-04-25T05:36:39;19.50;;;7.50;;
37847;SDS011;23688;33.130;-117.188;2023-04-25T05:39:08;19.10;;;8.05;;
37847;SDS011;23688;33.130;-117.188;2023-04-25T05:41:35;20.38;;;8.30;;
37847;SDS011;23688;33.130;-117.188;2023-04-25T05:44:02;23.88;;;9.13;;
37847;SDS011;23688;33.130;-117.188;2023-04-25T05:46:28;18.23;;;9.13;;
37847;SDS011;23688;33.130;-117.188;2023-04-25T05:48:54;16.73;;;7.43;;
37847;SDS011;23688;33.130;-117.188;2023-04-25T05:51:20;31.05;;;8.25;;
37847;SDS011;23688;33.130;-117.188;2023-04-25T05:53:47;15.75;;;7.70;;
37847;SDS011;23688;33.130;-117.188;2023-04-25T05:56:13;19.17;;;7.45;;
37847;SDS011;23688;33.130;-117.188;2023-04-25T05:58:39;19.83;;;7.93;;
37847;SDS011;23688;33.130;-117.188;2023-04-25T06:01:06;26.17;;;8.02;;
37847;SDS011;23688;33.130;-117.188;2023-04-25T06:03:32;17.30;;;7.35;;
37847;SDS011;23688;33.130;-117.188;2023-04-25T06:05:59;19.17;;;7.35;;
37847;SDS011;23688;33.130;-117.188;2023-04-25T06:08:25;17.33;;;8.82;;
37847;SDS011;23688;33.130;-117.188;2023-04-25T06:10:51;26.85;;;9.10;;
37847;SDS011;23688;33.130;-117.188;2023-04-25T06:13:18;25.20;;;9.43;;
37847;SDS011;23688;33.130;-117.188;2023-04-25T06:15:44;23.33;;;8.13;;
37847;SDS011;23688;33.130;-117.188;2023-04-25T06:18:10;20.30;;;8.25;;
37847;SDS011;23688;33.130;-117.188;2023-04-25T06:20:37;20.58;;;7.93;;
37847;SDS011;23688;33.130;-117.188;2023-04-25T06:23:03;21.70;;;8.75;;
37847;SDS011;23688;33.130;-117.188;2023-04-25T06:25:30;17.73;;;7.20;;
37847;SDS011;23688;33.130;-117.188;2023-04-25T06:27:56;18.08;;;8.27;;
37847;SDS011;23688;33.130;-117.188;2023-04-25T06:30:22;19.88;;;7.90;;
37847;SDS011;23688;33.130;-117.188;2023-04-25T06:32:51;21.15;;;8.73;;
37847;SDS011;23688;33.130;-117.188;2023-04-25T06:35:18;23.48;;;8.93;;
37847;SDS011;23688;33.130;-117.188;2023-04-25T06:37:45;21.98;;;8.07;;
37847;SDS011;23688;33.130;-117.188;2023-04-25T06:40:11;16.88;;;7.50;;
37847;SDS011;23688;33.130;-117.188;2023-04-25T06:42:37;14.75;;;8.23;;
37847;SDS011;23688;33.130;-117.188;2023-04-25T06:45:04;19.23;;;8.02;;
37847;SDS011;23688;33.130;-117.188;2023-04-25T06:47:30;18.00;;;8.02;;
37847;SDS011;23688;33.130;-117.188;2023-04-25T06:50:00;17.67;;;8.23;;
37847;SDS011;23688;33.130;-117.188;2023-04-25T06:52:26;21.27;;;8.32;;
37847;SDS011;23688;33.130;-117.188;2023-04-25T06:54:52;19.85;;;8.55;;
37847;SDS011;23688;33.130;-117.188;2023-04-25T06:57:18;25.75;;;7.90;;
37847;SDS011;23688;33.130;-117.188;2023-04-25T06:59:45;16.83;;;8.32;;
37847;SDS011;23688;33.130;-117.188;2023-04-25T07:02:11;26.60;;;10.15;;
37847;SDS011;23688;33.130;-117.188;2023-04-25T07:04:37;18.05;;;8.63;;
37847;SDS011;23688;33.130;-117.188;2023-04-25T07:07:03;21.10;;;9.88;;
37847;SDS011;23688;33.130;-117.188;2023-04-25T07:09:30;19.58;;;7.72;;
37847;SDS011;23688;33.130;-117.188;2023-04-25T07:14:27;23.77;;;9.27;;
37847;SDS011;23688;33.130;-117.188;2023-04-25T07:16:53;19.20;;;8.48;;
37847;SDS011;23688;33.130;-117.188;2023-04-25T07:19:21;22.70;;;8.70;;
37847;SDS011;23688;33.130;-117.188;2023-04-25T07:21:51;23.95;;;8.63;;
37847;SDS011;23688;33.130;-117.188;2023-04-25T07:24:18;29.08;;;9.10;;
37847;SDS011;23688;33.130;-117.188;2023-04-25T07:26:46;24.35;;;9.32;;
37847;SDS011;23688;33.130;-117.188;2023-04-25T07:29:13;20.48;;;8.75;;
37847;SDS011;23688;33.130;-117.188;2023-04-25T07:31:39;20.50;;;8.52;;
37847;SDS011;23688;33.130;-117.188;2023-04-25T07:34:05;19.58;;;9.30;;
37847;SDS011;23688;33.130;-117.188;2023-04-25T07:36:32;21.20;;;9.27;;
37847;SDS011;23688;33.130;-117.188;2023-04-25T07:38:58;21.88;;;10.30;;
37847;SDS011;23688;33.130;-117.188;2023-04-25T07:41:25;23.95;;;8.48;;
37847;SDS011;23688;33.130;-117.188;2023-04-25T07:43:51;21.92;;;8.70;;
37847;SDS011;23688;33.130;-117.188;2023-04-25T07:46:17;25.08;;;10.75;;
37847;SDS011;23688;33.130;-117.188;2023-04-25T07:48:43;20.52;;;9.57;;
37847;SDS011;23688;33.130;-117.188;2023-04-25T07:51:10;18.95;;;8.98;;
37847;SDS011;23688;33.130;-117.188;2023-04-25T07:53:36;22.13;;;8.40;;
37847;SDS011;23688;33.130;-117.188;2023-04-25T07:56:03;32.05;;;9.65;;
37847;SDS011;23688;33.130;-117.188;2023-04-25T07:58:29;20.65;;;9.43;;
37847;SDS011;23688;33.130;-117.188;2023-04-25T08:00:56;19.83;;;9.38;;
37847;SDS011;23688;33.130;-117.188;2023-04-25T08:03:22;30.35;;;9.73;;
37847;SDS011;23688;33.130;-117.188;2023-04-25T08:05:48;18.65;;;8.80;;
37847;SDS011;23688;33.130;-117.188;2023-04-25T08:08:15;21.70;;;9.10;;
37847;SDS011;23688;33.130;-117.188;2023-04-25T08:10:41;15.55;;;8.35;;
37847;SDS011;23688;33.130;-117.188;2023-04-25T08:13:07;23.50;;;9.15;;
37847;SDS011;23688;33.130;-117.188;2023-04-25T08:15:33;23.58;;;9.45;;
37847;SDS011;23688;33.130;-117.188;2023-04-25T08:18:00;17.95;;;9.98;;
37847;SDS011;23688;33.130;-117.188;2023-04-25T08:20:26;23.10;;;9.40;;
37847;SDS011;23688;33.130;-117.188;2023-04-25T08:22:52;19.50;;;9.82;;
37847;SDS011;23688;33.130;-117.188;2023-04-25T08:25:19;22.05;;;9.60;;
37847;SDS011;23688;33.130;-117.188;2023-04-25T08:27:45;26.77;;;10.30;;
37847;SDS011;23688;33.130;-117.188;2023-04-25T08:30:12;18.42;;;10.52;;
37847;SDS011;23688;33.130;-117.188;2023-04-25T08:32:38;19.15;;;9.10;;
37847;SDS011;23688;33.130;-117.188;2023-04-25T08:35:05;23.92;;;9.75;;
37847;SDS011;23688;33.130;-117.188;2023-04-25T08:37:32;23.13;;;10.15;;
37847;SDS011;23688;33.130;-117.188;2023-04-25T08:39:58;19.17;;;9.68;;
37847;SDS011;23688;33.130;-117.188;2023-04-25T08:42:24;22.15;;;10.05;;
37847;SDS011;23688;33.130;-117.188;2023-04-25T08:44:55;19.02;;;9.50;;
37847;SDS011;23688;33.130;-117.188;2023-04-25T08:47:23;19.55;;;9.48;;
37847;SDS011;23688;33.130;-117.188;2023-04-25T08:49:50;19.63;;;8.48;;
37847;SDS011;23688;33.130;-117.188;2023-04-25T08:52:21;19.25;;;9.30;;
37847;SDS011;23688;33.130;-117.188;2023-04-25T08:54:49;20.13;;;9.85;;
37847;SDS011;23688;33.130;-117.188;2023-04-25T08:57:16;20.30;;;10.45;;
37847;SDS011;23688;33.130;-117.188;2023-04-25T08:59:43;18.77;;;9.57;;
37847;SDS011;23688;33.130;-117.188;2023-04-25T09:02:11;18.27;;;9.32;;
37847;SDS011;23688;33.130;-117.188;2023-04-25T09:04:45;18.48;;;10.18;;
37847;SDS011;23688;33.130;-117.188;2023-04-25T09:07:11;19.90;;;9.27;;
37847;SDS011;23688;33.130;-117.188;2023-04-25T09:09:37;19.70;;;10.38;;
37847;SDS011;23688;33.130;-117.188;2023-04-25T09:12:04;20.15;;;10.18;;
37847;SDS011;23688;33.130;-117.188;2023-04-25T09:14:31;19.77;;;10.15;;
37847;SDS011;23688;33.130;-117.188;2023-04-25T09:19:36;21.20;;;10.07;;
37847;SDS011;23688;33.130;-117.188;2023-04-25T09:22:05;19.42;;;9.20;;
37847;SDS011;23688;33.130;-117.188;2023-04-25T09:27:03;22.52;;;9.32;;
37847;SDS011;23688;33.130;-117.188;2023-04-25T09:29:33;26.13;;;12.15;;
37847;SDS011;23688;33.130;-117.188;2023-04-25T09:34:42;25.80;;;12.55;;
37847;SDS011;23688;33.130;-117.188;2023-04-25T09:37:09;31.20;;;11.57;;
37847;SDS011;23688;33.130;-117.188;2023-04-25T09:39:39;25.27;;;12.40;;
37847;SDS011;23688;33.130;-117.188;2023-04-25T09:42:05;26.50;;;12.45;;
37847;SDS011;23688;33.130;-117.188;2023-04-25T09:44:32;24.40;;;13.05;;
37847;SDS011;23688;33.130;-117.188;2023-04-25T09:46:59;28.58;;;11.20;;
37847;SDS011;23688;33.130;-117.188;2023-04-25T09:49:25;22.73;;;11.73;;
37847;SDS011;23688;33.130;-117.188;2023-04-25T09:51:56;29.90;;;12.32;;
37847;SDS011;23688;33.130;-117.188;2023-04-25T09:54:23;26.92;;;12.20;;
37847;SDS011;23688;33.130;-117.188;2023-04-25T09:56:53;17.58;;;11.00;;
37847;SDS011;23688;33.130;-117.188;2023-04-25T09:59:20;27.88;;;12.07;;
37847;SDS011;23688;33.130;-117.188;2023-04-25T10:01:48;23.98;;;10.95;;
37847;SDS011;23688;33.130;-117.188;2023-04-25T10:04:19;22.57;;;10.73;;
37847;SDS011;23688;33.130;-117.188;2023-04-25T10:06:53;21.25;;;10.55;;
37847;SDS011;23688;33.130;-117.188;2023-04-25T10:09:22;23.98;;;10.25;;
37847;SDS011;23688;33.130;-117.188;2023-04-25T10:11:53;20.92;;;11.02;;
37847;SDS011;23688;33.130;-117.188;2023-04-25T10:14:20;23.52;;;11.75;;
37847;SDS011;23688;33.130;-117.188;2023-04-25T10:16:47;25.77;;;13.43;;
37847;SDS011;23688;33.130;-117.188;2023-04-25T10:19:14;25.92;;;12.13;;
37847;SDS011;23688;33.130;-117.188;2023-04-25T10:21:46;27.70;;;10.45;;
37847;SDS011;23688;33.130;-117.188;2023-04-25T10:24:16;23.67;;;9.68;;
37847;SDS011;23688;33.130;-117.188;2023-04-25T10:26:43;19.70;;;10.00;;
37847;SDS011;23688;33.130;-117.188;2023-04-25T10:29:10;24.77;;;10.27;;
37847;SDS011;23688;33.130;-117.188;2023-04-25T10:31:44;24.58;;;11.45;;
37847;SDS011;23688;33.130;-117.188;2023-04-25T10:34:12;25.70;;;12.18;;
37847;SDS011;23688;33.130;-117.188;2023-04-25T10:36:39;24.40;;;12.57;;
37847;SDS011;23688;33.130;-117.188;2023-04-25T10:39:05;30.27;;;11.82;;
37847;SDS011;23688;33.130;-117.188;2023-04-25T10:41:46;23.85;;;11.60;;
37847;SDS011;23688;33.130;-117.188;2023-04-25T10:44:26;26.33;;;11.93;;
37847;SDS011;23688;33.130;-117.188;2023-04-25T10:46:56;24.58;;;12.27;;
37847;SDS011;23688;33.130;-117.188;2023-04-25T10:49:33;25.77;;;11.98;;
37847;SDS011;23688;33.130;-117.188;2023-04-25T10:54:52;24.00;;;10.88;;
37847;SDS011;23688;33.130;-117.188;2023-04-25T11:00:19;21.15;;;10.90;;
37847;SDS011;23688;33.130;-117.188;2023-04-25T11:02:52;27.17;;;11.23;;
37847;SDS011;23688;33.130;-117.188;2023-04-25T11:08:02;20.08;;;11.65;;
37847;SDS011;23688;33.130;-117.188;2023-04-25T11:10:36;24.85;;;12.00;;
37847;SDS011;23688;33.130;-117.188;2023-04-25T11:13:02;28.00;;;13.48;;
37847;SDS011;23688;33.130;-117.188;2023-04-25T11:15:30;27.83;;;13.20;;
37847;SDS011;23688;33.130;-117.188;2023-04-25T11:17:56;27.95;;;11.77;;
37847;SDS011;23688;33.130;-117.188;2023-04-25T11:20:25;24.65;;;11.40;;
37847;SDS011;23688;33.130;-117.188;2023-04-25T11:22:53;24.42;;;10.60;;
37847;SDS011;23688;33.130;-117.188;2023-04-25T11:25:25;22.48;;;11.55;;
37847;SDS011;23688;33.130;-117.188;2023-04-25T11:27:57;21.42;;;10.57;;
37847;SDS011;23688;33.130;-117.188;2023-04-25T11:30:26;21.42;;;10.95;;
37847;SDS011;23688;33.130;-117.188;2023-04-25T11:32:54;24.58;;;11.63;;
37847;SDS011;23688;33.130;-117.188;2023-04-25T11:35:20;20.45;;;10.52;;
37847;SDS011;23688;33.130;-117.188;2023-04-25T11:37:48;27.58;;;11.80;;
37847;SDS011;23688;33.130;-117.188;2023-04-25T11:40:15;28.10;;;11.68;;
37847;SDS011;23688;33.130;-117.188;2023-04-25T11:42:45;23.77;;;12.23;;
37847;SDS011;23688;33.130;-117.188;2023-04-25T11:45:12;27.42;;;12.82;;
37847;SDS011;23688;33.130;-117.188;2023-04-25T11:47:40;24.60;;;11.63;;
37847;SDS011;23688;33.130;-117.188;2023-04-25T11:50:07;24.23;;;11.82;;
37847;SDS011;23688;33.130;-117.188;2023-04-25T11:52:41;25.65;;;10.68;;
37847;SDS011;23688;33.130;-117.188;2023-04-25T11:55:16;24.27;;;11.50;;
37847;SDS011;23688;33.130;-117.188;2023-04-25T11:57:45;21.27;;;11.05;;
37847;SDS011;23688;33.130;-117.188;2023-04-25T12:00:19;16.58;;;10.45;;
37847;SDS011;23688;33.130;-117.188;2023-04-25T12:02:47;27.33;;;11.82;;
37847;SDS011;23688;33.130;-117.188;2023-04-25T12:05:18;21.23;;;10.95;;
37847;SDS011;23688;33.130;-117.188;2023-04-25T12:07:45;19.58;;;9.88;;
37847;SDS011;23688;33.130;-117.188;2023-04-25T12:10:16;20.13;;;10.20;;
37847;SDS011;23688;33.130;-117.188;2023-04-25T12:12:44;25.15;;;10.55;;
37847;SDS011;23688;33.130;-117.188;2023-04-25T12:15:15;18.88;;;10.48;;
37847;SDS011;23688;33.130;-117.188;2023-04-25T12:17:45;21.00;;;10.13;;
37847;SDS011;23688;33.130;-117.188;2023-04-25T12:20:13;18.20;;;10.43;;
37847;SDS011;23688;33.130;-117.188;2023-04-25T12:22:47;25.50;;;10.23;;
37847;SDS011;23688;33.130;-117.188;2023-04-25T12:25:33;25.20;;;9.00;;
37847;SDS011;23688;33.130;-117.188;2023-04-25T12:28:10;18.83;;;9.05;;
37847;SDS011;23688;33.130;-117.188;2023-04-25T12:33:21;18.60;;;9.30;;
37847;SDS011;23688;33.130;-117.188;2023-04-25T12:35:48;23.95;;;10.60;;
37847;SDS011;23688;33.130;-117.188;2023-04-25T12:38:27;21.67;;;10.27;;
37847;SDS011;23688;33.130;-117.188;2023-04-25T12:40:55;25.30;;;11.15;;
37847;SDS011;23688;33.130;-117.188;2023-04-25T12:43:22;19.90;;;10.35;;
37847;SDS011;23688;33.130;-117.188;2023-04-25T12:45:49;23.00;;;10.30;;
37847;SDS011;23688;33.130;-117.188;2023-04-25T12:48:19;23.70;;;10.60;;
37847;SDS011;23688;33.130;-117.188;2023-04-25T12:50:47;16.52;;;9.88;;
37847;SDS011;23688;33.130;-117.188;2023-04-25T12:53:17;25.05;;;11.00;;
37847;SDS011;23688;33.130;-117.188;2023-04-25T12:55:45;24.13;;;10.65;;
37847;SDS011;23688;33.130;-117.188;2023-04-25T12:58:12;19.13;;;10.52;;
37847;SDS011;23688;33.130;-117.188;2023-04-25T13:00:39;24.40;;;11.05;;
37847;SDS011;23688;33.130;-117.188;2023-04-25T13:03:05;24.70;;;11.48;;
37847;SDS011;23688;33.130;-117.188;2023-04-25T13:05:32;23.65;;;11.80;;
37847;SDS011;23688;33.130;-117.188;2023-04-25T13:07:58;18.25;;;10.95;;
37847;SDS011;23688;33.130;-117.188;2023-04-25T13:10:24;28.00;;;11.73;;
37847;SDS011;23688;33.130;-117.188;2023-04-25T13:12:51;19.35;;;10.45;;
37847;SDS011;23688;33.130;-117.188;2023-04-25T13:15:17;25.30;;;10.82;;
37847;SDS011;23688;33.130;-117.188;2023-04-25T13:17:43;23.60;;;11.93;;
37847;SDS011;23688;33.130;-117.188;2023-04-25T13:20:10;27.10;;;10.68;;
37847;SDS011;23688;33.130;-117.188;2023-04-25T13:22:39;23.17;;;11.68;;
37847;SDS011;23688;33.130;-117.188;2023-04-25T13:25:06;22.30;;;12.30;;
37847;SDS011;23688;33.130;-117.188;2023-04-25T13:27:34;26.85;;;13.07;;
37847;SDS011;23688;33.130;-117.188;2023-04-25T13:30:01;21.13;;;11.82;;
37847;SDS011;23688;33.130;-117.188;2023-04-25T13:32:38;23.33;;;12.52;;
37847;SDS011;23688;33.130;-117.188;2023-04-25T13:35:06;24.17;;;11.07;;
37847;SDS011;23688;33.130;-117.188;2023-04-25T13:37:38;28.30;;;11.45;;
37847;SDS011;23688;33.130;-117.188;2023-04-25T13:40:06;25.55;;;12.07;;
37847;SDS011;23688;33.130;-117.188;2023-04-25T13:42:35;20.50;;;11.85;;
37847;SDS011;23688;33.130;-117.188;2023-04-25T13:45:02;31.00;;;12.55;;
37847;SDS011;23688;33.130;-117.188;2023-04-25T13:47:29;22.63;;;12.38;;
37847;SDS011;23688;33.130;-117.188;2023-04-25T13:49:56;22.92;;;11.77;;
37847;SDS011;23688;33.130;-117.188;2023-04-25T13:52:27;31.65;;;13.60;;
37847;SDS011;23688;33.130;-117.188;2023-04-25T13:54:54;23.08;;;12.82;;
37847;SDS011;23688;33.130;-117.188;2023-04-25T13:57:21;25.17;;;14.20;;
37847;SDS011;23688;33.130;-117.188;2023-04-25T13:59:47;24.90;;;13.43;;
37847;SDS011;23688;33.130;-117.188;2023-04-25T14:02:13;23.80;;;12.93;;
37847;SDS011;23688;33.130;-117.188;2023-04-25T14:04:40;21.77;;;13.38;;
37847;SDS011;23688;33.130;-117.188;2023-04-25T14:07:07;29.27;;;15.23;;
37847;SDS011;23688;33.130;-117.188;2023-04-25T14:09:33;23.77;;;13.45;;
37847;SDS011;23688;33.130;-117.188;2023-04-25T14:12:00;23.83;;;14.20;;
37847;SDS011;23688;33.130;-117.188;2023-04-25T14:14:27;33.42;;;13.70;;
37847;SDS011;23688;33.130;-117.188;2023-04-25T14:16:53;34.55;;;14.57;;
37847;SDS011;23688;33.130;-117.188;2023-04-25T14:19:20;28.98;;;13.48;;